createdAt,value
2023-02-26T00:01:30.234Z,4.84
2023-02-26T00:03:59.340Z,4.52
2023-02-26T00:06:27.460Z,4.84
2023-02-26T00:08:55.491Z,5.04
2023-02-26T00:11:22.762Z,4.85
2023-02-26T00:13:49.928Z,4.90
2023-02-26T00:16:19.876Z,5.06
2023-02-26T00:18:46.878Z,4.99
2023-02-26T00:21:21.710Z,4.90
2023-02-26T00:23:48.654Z,4.88
2023-02-26T00:26:15.397Z,4.42
2023-02-26T00:28:42.400Z,4.83
2023-02-26T00:31:10.079Z,4.72
2023-02-26T00:33:37.223Z,4.94
2023-02-26T00:36:19.777Z,4.87
2023-02-26T00:39:10.252Z,4.84
2023-02-26T00:41:38.990Z,4.67
2023-02-26T00:44:06.018Z,4.64
2023-02-26T00:46:55.924Z,5.17
2023-02-26T00:49:52.029Z,4.93
2023-02-26T00:52:39.217Z,4.98
2023-02-26T00:55:06.421Z,4.88
2023-02-26T00:57:33.106Z,4.59
2023-02-26T00:59:59.842Z,4.88
2023-02-26T01:02:26.941Z,5.00
2023-02-26T01:04:53.743Z,4.74
2023-02-26T01:07:24.550Z,4.75
2023-02-26T01:09:51.666Z,4.68
2023-02-26T01:12:18.677Z,4.83
2023-02-26T01:14:47.450Z,4.78
2023-02-26T01:17:26.450Z,5.05
2023-02-26T01:20:16.399Z,4.85
2023-02-26T01:22:51.900Z,4.74
2023-02-26T01:25:24.934Z,4.61
2023-02-26T01:27:52.239Z,4.69
2023-02-26T01:30:19.653Z,4.56
2023-02-26T01:33:08.586Z,4.86
2023-02-26T01:35:56.940Z,5.17
2023-02-26T01:39:11.270Z,5.13
2023-02-26T01:41:47.469Z,5.22
2023-02-26T01:44:19.467Z,4.65
2023-02-26T01:46:55.268Z,5.09
2023-02-26T01:49:22.441Z,4.95
2023-02-26T01:51:56.993Z,4.94
2023-02-26T01:54:28.650Z,4.93
2023-02-26T01:57:18.504Z,4.57
2023-02-26T01:59:52.251Z,4.84
2023-02-26T02:02:22.673Z,4.79
2023-02-26T02:04:50.550Z,4.62
2023-02-26T02:07:19.184Z,4.85
2023-02-26T02:09:47.728Z,4.64
2023-02-26T02:12:32.488Z,5.22
2023-02-26T02:15:18.136Z,5.18
2023-02-26T02:17:50.929Z,5.23
2023-02-26T02:20:52.587Z,4.70
2023-02-26T02:23:43.569Z,5.21
2023-02-26T02:26:31.610Z,5.33
2023-02-26T02:29:29.245Z,5.18
2023-02-26T02:32:03.950Z,5.04
2023-02-26T02:34:40.184Z,5.20
2023-02-26T02:37:30.619Z,5.02
2023-02-26T02:40:04.511Z,5.08
2023-02-26T02:42:50.058Z,4.91
2023-02-26T02:45:25.622Z,4.67
2023-02-26T02:48:05.994Z,4.84
2023-02-26T02:50:57.912Z,5.18
2023-02-26T02:53:37.270Z,5.13
2023-02-26T02:56:11.052Z,5.28
2023-02-26T02:58:43.577Z,5.07
2023-02-26T03:01:15.572Z,5.22
2023-02-26T03:03:42.235Z,5.14
2023-02-26T03:06:09.221Z,5.19
2023-02-26T03:08:41.451Z,5.20
2023-02-26T03:11:09.234Z,5.24
2023-02-26T03:13:37.663Z,4.94
2023-02-26T03:16:07.315Z,5.24
2023-02-26T03:18:46.040Z,5.03
2023-02-26T03:21:25.095Z,5.14
2023-02-26T03:24:04.547Z,5.19
2023-02-26T03:26:37.337Z,4.90
2023-02-26T03:29:10.644Z,4.96
2023-02-26T03:31:47.109Z,5.26
2023-02-26T03:34:24.004Z,5.06
2023-02-26T03:37:12.272Z,4.80
2023-02-26T03:39:42.656Z,4.96
2023-02-26T03:42:22.789Z,4.85
2023-02-26T03:45:04.957Z,4.63
2023-02-26T03:47:34.043Z,4.82
2023-02-26T03:50:33.460Z,5.08
2023-02-26T03:53:03.162Z,5.15
2023-02-26T03:55:41.492Z,4.94
2023-02-26T03:58:08.244Z,4.86
2023-02-26T04:00:38.212Z,4.99
2023-02-26T04:03:23.082Z,5.04
2023-02-26T04:05:52.202Z,5.11
2023-02-26T04:08:20.436Z,4.72
2023-02-26T04:10:58.518Z,4.91
2023-02-26T04:13:26.060Z,4.82
2023-02-26T04:15:52.795Z,4.90
2023-02-26T04:18:19.533Z,4.86
2023-02-26T04:20:46.284Z,4.39
2023-02-26T04:23:13.086Z,4.56
2023-02-26T04:25:40.047Z,5.01
2023-02-26T04:28:06.764Z,4.82
2023-02-26T04:30:33.531Z,4.88
2023-02-26T04:33:00.272Z,5.17
2023-02-26T04:35:27.009Z,5.22
2023-02-26T04:37:53.784Z,4.77
2023-02-26T04:40:20.491Z,4.49
2023-02-26T04:42:47.709Z,4.73
2023-02-26T04:45:14.476Z,4.81
2023-02-26T04:47:41.298Z,4.76
2023-02-26T04:50:09.210Z,4.62
2023-02-26T04:52:35.890Z,4.67
2023-02-26T04:55:02.668Z,4.48
2023-02-26T04:57:29.359Z,4.55
2023-02-26T04:59:56.125Z,4.77
2023-02-26T05:02:22.774Z,4.65
2023-02-26T05:04:49.552Z,5.03
2023-02-26T05:07:16.527Z,4.76
2023-02-26T05:09:43.294Z,4.52
2023-02-26T05:12:10.033Z,4.84
2023-02-26T05:14:36.745Z,4.27
2023-02-26T05:17:03.484Z,4.68
2023-02-26T05:19:30.411Z,4.61
2023-02-26T05:21:57.141Z,4.46
2023-02-26T05:24:24.079Z,4.80
2023-02-26T05:26:50.815Z,4.58
2023-02-26T05:29:17.563Z,4.67
2023-02-26T05:31:44.399Z,4.36
2023-02-26T05:34:11.295Z,4.64
2023-02-26T05:36:37.979Z,4.72
2023-02-26T05:39:04.715Z,4.89
2023-02-26T05:41:31.505Z,4.43
2023-02-26T05:43:58.194Z,4.95
2023-02-26T05:46:25.269Z,4.72
2023-02-26T05:48:52.258Z,4.88
2023-02-26T05:51:19.060Z,4.63
2023-02-26T05:53:46.272Z,4.46
2023-02-26T05:56:13.128Z,4.99
2023-02-26T05:58:39.910Z,4.87
2023-02-26T06:01:06.716Z,4.55
2023-02-26T06:03:34.767Z,4.49
2023-02-26T06:06:01.544Z,4.74
2023-02-26T06:08:28.280Z,4.65
2023-02-26T06:10:55.121Z,4.78
2023-02-26T06:13:21.847Z,4.46
2023-02-26T06:15:52.324Z,5.10
2023-02-26T06:18:19.034Z,5.02
2023-02-26T06:20:45.771Z,4.73
2023-02-26T06:23:12.590Z,4.65
2023-02-26T06:25:39.348Z,4.88
2023-02-26T06:28:06.074Z,4.71
2023-02-26T06:30:32.780Z,5.09
2023-02-26T06:32:59.477Z,4.88
2023-02-26T06:35:26.248Z,4.83
2023-02-26T06:37:52.946Z,5.16
2023-02-26T06:40:20.018Z,4.97
2023-02-26T06:42:46.793Z,4.94
2023-02-26T06:45:13.601Z,4.87
2023-02-26T06:47:40.350Z,4.99
2023-02-26T06:50:07.675Z,4.94
2023-02-26T06:52:40.939Z,4.98
2023-02-26T06:55:07.801Z,5.09
2023-02-26T06:57:34.534Z,4.77
2023-02-26T07:00:01.390Z,4.93
2023-02-26T07:02:28.301Z,4.78
2023-02-26T07:04:55.136Z,5.06
2023-02-26T07:07:21.915Z,5.16
2023-02-26T07:09:49.160Z,4.76
2023-02-26T07:12:16.289Z,4.84
2023-02-26T07:14:43.911Z,4.96
2023-02-26T07:17:10.802Z,4.81
2023-02-26T07:19:37.640Z,4.90
2023-02-26T07:22:04.382Z,4.93
2023-02-26T07:24:31.141Z,4.89
2023-02-26T07:26:57.826Z,5.16
2023-02-26T07:29:24.502Z,4.97
2023-02-26T07:31:51.360Z,4.97
2023-02-26T07:34:18.518Z,4.94
2023-02-26T07:36:45.515Z,5.29
2023-02-26T07:39:12.302Z,4.99
2023-02-26T07:41:39.106Z,4.85
2023-02-26T07:44:05.920Z,5.10
2023-02-26T07:46:32.857Z,5.13
2023-02-26T07:48:59.779Z,5.13
2023-02-26T07:51:26.892Z,5.15
2023-02-26T07:53:53.769Z,5.28
2023-02-26T07:56:20.549Z,5.40
2023-02-26T07:58:47.276Z,5.00
2023-02-26T08:01:14.324Z,5.23
2023-02-26T08:03:41.121Z,5.50
2023-02-26T08:06:08.712Z,5.46
2023-02-26T08:08:35.463Z,4.89
2023-02-26T08:11:02.592Z,5.45
2023-02-26T08:13:29.356Z,5.19
2023-02-26T08:15:56.259Z,5.04
2023-02-26T08:18:23.056Z,5.02
2023-02-26T08:20:52.233Z,5.13
2023-02-26T08:23:19.743Z,4.99
2023-02-26T08:25:46.646Z,5.02
2023-02-26T08:28:13.378Z,5.40
2023-02-26T08:30:40.143Z,5.55
2023-02-26T08:33:06.942Z,5.23
2023-02-26T08:35:33.628Z,5.14
2023-02-26T08:38:00.282Z,5.25
2023-02-26T08:40:27.028Z,5.56
2023-02-26T08:42:53.748Z,5.13
2023-02-26T08:45:20.455Z,5.51
2023-02-26T08:47:56.034Z,5.56
2023-02-26T08:50:23.743Z,5.77
2023-02-26T08:52:50.533Z,5.59
2023-02-26T08:55:17.432Z,5.31
2023-02-26T08:57:44.218Z,5.31
2023-02-26T09:00:11.410Z,5.74
2023-02-26T09:02:38.980Z,5.68
2023-02-26T09:05:06.440Z,5.60
2023-02-26T09:07:33.157Z,5.76
2023-02-26T09:10:00.373Z,5.68
2023-02-26T09:12:27.278Z,5.65
2023-02-26T09:14:53.984Z,5.57
2023-02-26T09:17:20.650Z,5.68
2023-02-26T09:19:47.356Z,5.97
2023-02-26T09:22:14.023Z,5.96
2023-02-26T09:24:41.168Z,5.62
2023-02-26T09:27:07.865Z,5.65
2023-02-26T09:29:34.752Z,5.92
2023-02-26T09:32:02.128Z,5.68
2023-02-26T09:34:28.910Z,6.30
2023-02-26T09:36:55.594Z,5.77
2023-02-26T09:39:24.596Z,5.74
2023-02-26T09:41:55.093Z,6.13
2023-02-26T09:44:26.955Z,6.03
2023-02-26T09:46:56.717Z,6.47
2023-02-26T09:49:43.906Z,6.12
2023-02-26T09:52:18.862Z,6.55
2023-02-26T09:54:49.900Z,6.17
2023-02-26T09:57:30.630Z,6.63
2023-02-26T09:59:58.308Z,6.37
2023-02-26T10:02:31.974Z,6.39
2023-02-26T10:05:10.878Z,6.62
2023-02-26T10:07:47.527Z,6.19
2023-02-26T10:10:35.729Z,6.72
2023-02-26T10:13:02.690Z,6.72
2023-02-26T10:15:38.035Z,6.72
2023-02-26T10:18:30.857Z,6.91
2023-02-26T10:21:14.321Z,6.90
2023-02-26T10:23:48.979Z,7.00
2023-02-26T10:26:36.125Z,6.50
2023-02-26T10:29:26.144Z,6.52
2023-02-26T10:31:59.807Z,6.96
2023-02-26T10:34:29.511Z,7.00
2023-02-26T10:37:20.965Z,7.07
2023-02-26T10:39:57.109Z,6.59
2023-02-26T10:42:28.718Z,6.69
2023-02-26T10:45:14.008Z,6.95
2023-02-26T10:47:53.851Z,7.10
2023-02-26T10:50:23.790Z,7.38
2023-02-26T10:52:52.824Z,7.49
2023-02-26T10:55:40.893Z,7.58
2023-02-26T10:58:18.261Z,7.79
2023-02-26T11:00:48.117Z,7.79
2023-02-26T11:03:38.121Z,8.12
2023-02-26T11:06:06.730Z,7.98
2023-02-26T11:08:35.366Z,8.29
2023-02-26T11:11:05.215Z,8.52
2023-02-26T11:13:35.192Z,8.68
2023-02-26T11:16:11.305Z,8.48
2023-02-26T11:18:49.695Z,8.26
2023-02-26T11:21:28.781Z,8.45
2023-02-26T11:24:01.954Z,8.60
2023-02-26T11:26:35.220Z,8.61
2023-02-26T11:29:02.268Z,8.63
2023-02-26T11:31:30.647Z,8.57
2023-02-26T11:34:06.901Z,8.52
2023-02-26T11:36:37.222Z,8.71
2023-02-26T11:39:08.455Z,8.37
2023-02-26T11:41:39.732Z,8.43
2023-02-26T11:44:14.837Z,8.08
2023-02-26T11:46:53.842Z,8.49
2023-02-26T11:49:26.237Z,8.10
2023-02-26T11:52:11.424Z,8.38
2023-02-26T11:54:39.988Z,8.50
2023-02-26T11:57:15.567Z,8.45
2023-02-26T11:59:44.823Z,8.42
2023-02-26T12:02:13.767Z,8.25
2023-02-26T12:07:30.481Z,8.21
2023-02-26T12:09:57.327Z,8.49
2023-02-26T12:12:43.629Z,8.72
2023-02-26T12:15:31.733Z,8.70
2023-02-26T12:18:30.500Z,8.25
2023-02-26T12:21:15.921Z,8.66
2023-02-26T12:24:05.733Z,8.79
2023-02-26T12:26:37.691Z,8.67
2023-02-26T12:29:19.611Z,8.78
2023-02-26T12:32:14.531Z,8.49
2023-02-26T12:34:59.560Z,8.99
2023-02-26T12:37:41.732Z,9.22
2023-02-26T12:41:03.253Z,9.23
2023-02-26T12:43:29.956Z,8.83
2023-02-26T12:46:26.497Z,9.14
2023-02-26T12:48:56.152Z,9.24
2023-02-26T12:51:43.237Z,9.07
2023-02-26T12:54:43.969Z,9.05
2023-02-26T12:57:47.692Z,8.79
2023-02-26T13:00:45.232Z,8.89
2023-02-26T13:03:41.130Z,8.85
2023-02-26T13:06:35.854Z,8.64
2023-02-26T13:09:15.912Z,8.46
2023-02-26T13:11:54.861Z,8.80
2023-02-26T13:14:21.489Z,8.82
2023-02-26T13:17:09.976Z,8.79
2023-02-26T13:19:55.574Z,8.38
2023-02-26T13:22:46.268Z,8.51
2023-02-26T13:25:39.246Z,8.29
2023-02-26T13:28:21.472Z,8.41
2023-02-26T13:30:56.121Z,8.51
2023-02-26T13:33:30.763Z,8.68
2023-02-26T13:36:00.637Z,8.23
2023-02-26T13:38:30.366Z,8.61
2023-02-26T13:41:16.493Z,8.88
2023-02-26T13:44:04.573Z,8.74
2023-02-26T13:47:28.720Z,8.79
2023-02-26T13:50:32.800Z,8.71
2023-02-26T13:53:06.038Z,8.81
2023-02-26T13:55:42.112Z,8.88
2023-02-26T13:58:29.507Z,8.59
2023-02-26T14:01:16.422Z,8.43
2023-02-26T14:04:07.187Z,8.73
2023-02-26T14:06:42.374Z,8.82
2023-02-26T14:09:25.780Z,8.88
2023-02-26T14:11:55.506Z,8.62
2023-02-26T14:14:22.175Z,8.67
2023-02-26T14:17:10.789Z,8.62
2023-02-26T14:19:43.844Z,8.40
2023-02-26T14:22:30.018Z,8.57
2023-02-26T14:25:05.846Z,8.29
2023-02-26T14:27:44.005Z,8.65
2023-02-26T14:30:10.810Z,8.52
2023-02-26T14:33:06.037Z,8.45
2023-02-26T14:35:36.480Z,8.69
2023-02-26T14:38:08.063Z,8.53
2023-02-26T14:40:42.885Z,8.36
2023-02-26T14:43:38.454Z,8.07
2023-02-26T14:46:07.369Z,8.62
2023-02-26T14:48:36.085Z,8.47
2023-02-26T14:51:03.488Z,8.45
2023-02-26T14:53:33.107Z,8.58
2023-02-26T14:56:24.846Z,8.42
2023-02-26T14:59:00.683Z,8.38
2023-02-26T15:01:47.669Z,8.10
2023-02-26T15:04:14.446Z,8.49
2023-02-26T15:07:01.117Z,8.28
2023-02-26T15:09:36.475Z,8.60
2023-02-26T15:12:27.039Z,7.94
2023-02-26T15:15:07.313Z,8.63
2023-02-26T15:17:47.116Z,8.72
2023-02-26T15:20:29.020Z,8.62
2023-02-26T15:23:20.620Z,8.59
2023-02-26T15:25:49.551Z,8.54
2023-02-26T15:28:25.074Z,8.03
2023-02-26T15:30:52.518Z,8.33
2023-02-26T15:33:21.619Z,8.06
2023-02-26T15:35:50.229Z,7.91
2023-02-26T15:38:17.134Z,8.02
2023-02-26T15:40:44.919Z,7.95
2023-02-26T15:43:19.461Z,7.88
2023-02-26T15:45:52.246Z,8.31
2023-02-26T15:48:31.309Z,8.14
2023-02-26T15:51:02.931Z,8.33
2023-02-26T15:53:41.457Z,8.36
2023-02-26T15:56:13.489Z,8.06
2023-02-26T15:58:45.310Z,8.10
2023-02-26T16:01:17.502Z,8.14
2023-02-26T16:03:44.630Z,8.15
2023-02-26T16:06:18.834Z,8.47
2023-02-26T16:08:45.754Z,8.23
2023-02-26T16:11:13.976Z,8.06
2023-02-26T16:13:43.616Z,8.29
2023-02-26T16:16:25.128Z,7.83
2023-02-26T16:18:54.548Z,7.74
2023-02-26T16:21:29.190Z,7.92
2023-02-26T16:23:58.681Z,7.68
2023-02-26T16:26:34.397Z,7.59
2023-02-26T16:29:04.820Z,8.07
2023-02-26T16:31:38.029Z,7.95
2023-02-26T16:34:22.403Z,8.05
2023-02-26T16:36:49.941Z,7.75
2023-02-26T16:39:30.749Z,7.81
2023-02-26T16:42:19.845Z,7.64
2023-02-26T16:45:01.712Z,7.66
2023-02-26T16:47:31.315Z,7.64
2023-02-26T16:49:58.307Z,7.50
2023-02-26T16:52:26.919Z,7.57
2023-02-26T16:54:59.033Z,7.43
2023-02-26T16:57:39.891Z,7.85
2023-02-26T17:00:17.800Z,7.57
2023-02-26T17:02:47.626Z,7.59
2023-02-26T17:05:26.250Z,7.20
2023-02-26T17:08:02.493Z,7.38
2023-02-26T17:10:44.425Z,7.45
2023-02-26T17:13:25.172Z,7.44
2023-02-26T17:15:54.362Z,7.00
2023-02-26T17:18:21.493Z,7.04
2023-02-26T17:20:48.508Z,7.02
2023-02-26T17:23:17.597Z,7.32
2023-02-26T17:25:51.029Z,7.10
2023-02-26T17:28:27.297Z,7.10
2023-02-26T17:30:55.318Z,6.94
2023-02-26T17:33:22.518Z,7.26
2023-02-26T17:35:50.213Z,7.27
2023-02-26T17:38:17.132Z,6.93
2023-02-26T17:40:47.757Z,6.59
2023-02-26T17:43:14.739Z,6.89
2023-02-26T17:45:42.077Z,6.72
2023-02-26T17:48:11.027Z,6.71
2023-02-26T17:50:55.032Z,6.99
2023-02-26T17:53:27.949Z,7.01
2023-02-26T17:55:56.858Z,6.52
2023-02-26T17:58:29.314Z,6.65
2023-02-26T18:00:56.967Z,6.91
2023-02-26T18:03:24.209Z,6.86
2023-02-26T18:05:54.761Z,6.58
2023-02-26T18:08:31.783Z,6.83
2023-02-26T18:11:00.076Z,6.49
2023-02-26T18:13:27.758Z,6.89
2023-02-26T18:15:56.661Z,6.83
2023-02-26T18:18:24.807Z,6.85
2023-02-26T18:20:52.927Z,6.58
2023-02-26T18:23:19.818Z,6.72
2023-02-26T18:25:49.025Z,6.39
2023-02-26T18:28:27.504Z,6.62
2023-02-26T18:30:55.256Z,6.62
2023-02-26T18:33:22.380Z,6.58
2023-02-26T18:35:53.460Z,6.47
2023-02-26T18:38:22.277Z,6.35
2023-02-26T18:40:49.818Z,6.60
2023-02-26T18:43:16.833Z,6.44
2023-02-26T18:45:46.914Z,6.31
2023-02-26T18:48:16.711Z,5.96
2023-02-26T18:50:44.727Z,5.69
2023-02-26T18:53:11.898Z,5.55
2023-02-26T18:55:41.576Z,5.31
2023-02-26T18:58:12.877Z,5.33
2023-02-26T19:00:39.702Z,5.09
2023-02-26T19:03:07.974Z,5.16
2023-02-26T19:05:35.616Z,4.93
2023-02-26T19:08:11.715Z,5.50
2023-02-26T19:10:39.234Z,5.47
2023-02-26T19:13:05.996Z,5.24
2023-02-26T19:15:32.873Z,5.09
2023-02-26T19:17:59.628Z,4.92
2023-02-26T19:20:26.437Z,5.28
2023-02-26T19:22:53.173Z,5.29
2023-02-26T19:25:24.299Z,5.01
2023-02-26T19:27:54.477Z,4.95
2023-02-26T19:30:23.153Z,5.12
2023-02-26T19:32:50.955Z,5.05
2023-02-26T19:35:18.618Z,5.13
2023-02-26T19:37:45.623Z,4.80
2023-02-26T19:40:16.705Z,5.30
2023-02-26T19:42:44.173Z,5.22
2023-02-26T19:45:11.679Z,5.25
2023-02-26T19:47:38.487Z,5.04
2023-02-26T19:50:06.110Z,5.03
2023-02-26T19:52:33.979Z,4.99
2023-02-26T19:55:00.858Z,4.99
2023-02-26T19:57:28.292Z,4.83
2023-02-26T19:59:55.051Z,5.04
2023-02-26T20:02:21.852Z,4.94
2023-02-26T20:04:48.585Z,4.74
2023-02-26T20:07:15.398Z,4.97
2023-02-26T20:09:42.059Z,4.74
2023-02-26T20:12:09.166Z,4.83
2023-02-26T20:14:36.833Z,4.76
2023-02-26T20:17:04.101Z,4.57
2023-02-26T20:19:30.838Z,4.59
2023-02-26T20:21:57.907Z,4.45
2023-02-26T20:24:24.800Z,4.98
2023-02-26T20:26:51.528Z,4.56
2023-02-26T20:29:18.791Z,4.65
2023-02-26T20:31:50.283Z,4.74
2023-02-26T20:34:19.724Z,4.32
2023-02-26T20:36:48.470Z,4.37
2023-02-26T20:39:15.665Z,4.68
2023-02-26T20:41:42.653Z,4.22
2023-02-26T20:44:09.519Z,4.47
2023-02-26T20:46:38.982Z,4.61
2023-02-26T20:49:11.554Z,4.38
2023-02-26T20:51:45.409Z,4.60
2023-02-26T20:54:17.876Z,4.63
2023-02-26T20:56:45.449Z,4.56
2023-02-26T20:59:12.184Z,4.65
2023-02-26T21:01:38.875Z,4.59
2023-02-26T21:04:09.187Z,4.61
2023-02-26T21:06:37.098Z,4.42
2023-02-26T21:09:05.639Z,4.55
2023-02-26T21:11:36.639Z,4.97
2023-02-26T21:14:05.112Z,4.67
2023-02-26T21:16:33.366Z,4.81
2023-02-26T21:19:00.883Z,4.57
2023-02-26T21:21:27.951Z,4.75
2023-02-26T21:23:55.781Z,4.77
2023-02-26T21:26:23.596Z,4.69
2023-02-26T21:28:50.899Z,4.97
2023-02-26T21:31:19.437Z,4.99
2023-02-26T21:33:46.466Z,5.08
2023-02-26T21:36:14.568Z,5.14
2023-02-26T21:38:42.303Z,5.10
2023-02-26T21:41:09.145Z,4.97
2023-02-26T21:43:35.920Z,5.18
2023-02-26T21:46:02.910Z,4.98
2023-02-26T21:48:29.685Z,4.95
2023-02-26T21:50:56.719Z,4.92
2023-02-26T21:53:23.918Z,4.99
2023-02-26T21:55:50.745Z,5.10
2023-02-26T21:58:17.489Z,5.32
2023-02-26T22:00:44.700Z,5.27
2023-02-26T22:03:11.555Z,5.08
2023-02-26T22:05:38.317Z,5.16
2023-02-26T22:08:05.257Z,5.05
2023-02-26T22:10:32.028Z,5.16
2023-02-26T22:12:58.833Z,5.30
2023-02-26T22:15:25.780Z,5.16
2023-02-26T22:17:53.463Z,5.34
2023-02-26T22:20:20.695Z,5.26
2023-02-26T22:22:49.733Z,5.39
2023-02-26T22:25:17.348Z,4.89
2023-02-26T22:27:45.796Z,5.49
2023-02-26T22:30:14.774Z,5.19
2023-02-26T22:32:44.179Z,5.08
2023-02-26T22:35:14.215Z,5.28
2023-02-26T22:37:43.473Z,5.60
2023-02-26T22:40:13.172Z,5.08
2023-02-26T22:42:41.770Z,5.55
2023-02-26T22:45:10.643Z,5.29
2023-02-26T22:47:37.575Z,5.16
2023-02-26T22:50:04.654Z,5.22
2023-02-26T22:52:31.377Z,5.08
2023-02-26T22:54:58.252Z,4.93
2023-02-26T22:57:25.064Z,5.16
2023-02-26T22:59:51.785Z,4.85
2023-02-26T23:02:18.528Z,4.78
2023-02-26T23:04:45.214Z,4.67
2023-02-26T23:07:11.988Z,4.96
2023-02-26T23:09:38.735Z,4.84
2023-02-26T23:12:05.661Z,5.05
2023-02-26T23:14:32.570Z,4.95
2023-02-26T23:16:59.367Z,5.12
2023-02-26T23:19:26.628Z,4.96
2023-02-26T23:21:54.350Z,4.31
2023-02-26T23:24:21.021Z,4.41
2023-02-26T23:26:47.705Z,4.48
2023-02-26T23:29:14.433Z,4.72
2023-02-26T23:31:41.904Z,4.09
2023-02-26T23:34:11.014Z,4.41
2023-02-26T23:36:37.784Z,4.63
2023-02-26T23:39:04.554Z,4.45
2023-02-26T23:41:31.220Z,4.26
2023-02-26T23:43:57.972Z,4.07
2023-02-26T23:46:24.725Z,4.13
2023-02-26T23:48:51.662Z,4.61
2023-02-26T23:51:18.970Z,3.92
2023-02-26T23:53:45.850Z,3.87
2023-02-26T23:56:12.905Z,4.06
2023-02-26T23:58:39.584Z,4.09
